Time;durP1;ratioP1;P1;durP2;ratioP2;P2;SDS_P1;SDS_P2;PMS_P1;PMS_P2;Temp;Humidity;BMP_temperature;BMP_pressure;BME280_temperature;BME280_humidity;BME280_pressure;Samples;Min_cycle;Max_cycle;Signal;HPM_P1;HPM_P2
2023/11/14 00:12:56;;;;;;;0.30;0.30;;;;;;;;;;7398608;19;20127;-90
2023/11/14 00:15:26;;;;;;;0.30;0.30;;;;;;;;;;7393356;19;20160;-90
2023/11/14 00:17:53;;;;;;;0.30;0.30;;;;;;;;;;7395760;19;20168;-92
2023/11/14 00:20:21;;;;;;;0.30;0.30;;;;;;;;;;7383897;19;20141;-92
2023/11/14 00:22:47;;;;;;;0.20;0.20;;;;;;;;;;7391783;19;20208;-90
2023/11/14 00:25:14;;;;;;;0.30;0.30;;;;;;;;;;7392737;19;20153;-93
2023/11/14 00:27:41;;;;;;;0.30;0.30;;;;;;;;;;7394732;19;20133;-93
2023/11/14 00:30:08;;;;;;;0.30;0.30;;;;;;;;;;7397730;19;20192;-93
2023/11/14 00:32:35;;;;;;;0.20;0.20;;;;;;;;;;7390716;19;20627;-93
2023/11/14 00:35:03;;;;;;;0.30;0.30;;;;;;;;;;7395177;19;20145;-93
2023/11/14 00:37:29;;;;;;;0.20;0.20;;;;;;;;;;7403925;19;20152;-94
2023/11/14 00:40:00;;;;;;;0.40;0.40;;;;;;;;;;7397579;19;20490;-93
2023/11/14 00:42:28;;;;;;;2.15;2.05;;;;;;;;;;7397262;19;20154;-93
2023/11/14 00:44:55;;;;;;;0.22;0.22;;;;;;;;;;7404961;19;20168;-95
2023/11/14 00:47:22;;;;;;;0.30;0.30;;;;;;;;;;7414393;19;20145;-92
2023/11/14 00:49:49;;;;;;;0.22;0.22;;;;;;;;;;7404249;19;20516;-93
2023/11/14 00:52:18;;;;;;;0.30;0.30;;;;;;;;;;7403424;19;20152;-93
2023/11/14 00:54:45;;;;;;;0.35;0.35;;;;;;;;;;7398013;19;20153;-92
2023/11/14 00:57:14;;;;;;;0.30;0.30;;;;;;;;;;7398658;19;20157;-94
2023/11/14 00:59:49;;;;;;;0.20;0.20;;;;;;;;;;7402763;19;20140;-93
2023/11/14 01:02:15;;;;;;;0.20;0.20;;;;;;;;;;7400835;19;20192;-90
2023/11/14 01:04:43;;;;;;;0.30;0.30;;;;;;;;;;7410768;19;20182;-93
2023/11/14 01:07:17;;;;;;;0.30;0.30;;;;;;;;;;7401168;19;20156;-93
2023/11/14 01:09:44;;;;;;;0.30;0.30;;;;;;;;;;7395289;19;20132;-92
2023/11/14 01:12:11;;;;;;;0.20;0.20;;;;;;;;;;7396725;19;20141;-92
2023/11/14 01:14:39;;;;;;;0.30;0.30;;;;;;;;;;7392298;19;20668;-93
2023/11/14 01:17:19;;;;;;;0.82;0.82;;;;;;;;;;7394486;19;20654;-93
2023/11/14 01:19:54;;;;;;;0.30;0.30;;;;;;;;;;7392780;19;20252;-92
2023/11/14 01:22:21;;;;;;;0.30;0.30;;;;;;;;;;7397795;19;20205;-93
2023/11/14 01:24:48;;;;;;;0.30;0.30;;;;;;;;;;7397323;19;20177;-93
2023/11/14 01:27:15;;;;;;;0.30;0.30;;;;;;;;;;7392606;19;20145;-92
2023/11/14 01:29:46;;;;;;;0.20;0.20;;;;;;;;;;7401891;19;20144;-93
2023/11/14 01:32:21;;;;;;;0.20;0.20;;;;;;;;;;7402727;19;20133;-93
2023/11/14 01:34:48;;;;;;;0.30;0.30;;;;;;;;;;7398095;19;20136;-92
2023/11/14 01:37:15;;;;;;;0.20;0.20;;;;;;;;;;7397903;19;20502;-91
2023/11/14 01:39:45;;;;;;;0.30;0.30;;;;;;;;;;7398443;19;20601;-94
2023/11/14 01:42:12;;;;;;;0.30;0.30;;;;;;;;;;7400043;19;20137;-92
2023/11/14 01:44:42;;;;;;;0.30;0.30;;;;;;;;;;7414161;19;20243;-94
2023/11/14 01:47:09;;;;;;;0.30;0.30;;;;;;;;;;7402777;19;20467;-94
2023/11/14 01:49:37;;;;;;;0.30;0.30;;;;;;;;;;7400269;19;20145;-93
2023/11/14 01:52:08;;;;;;;0.20;0.20;;;;;;;;;;7405727;19;20162;-95
2023/11/14 01:54:35;;;;;;;0.30;0.30;;;;;;;;;;7405736;19;20148;-92
2023/11/14 01:57:12;;;;;;;0.30;0.30;;;;;;;;;;7405031;19;20140;-94
2023/11/14 01:59:42;;;;;;;0.30;0.30;;;;;;;;;;7412410;19;20237;-92
2023/11/14 02:02:12;;;;;;;0.20;0.20;;;;;;;;;;7403500;19;20475;-93
2023/11/14 02:04:42;;;;;;;0.20;0.20;;;;;;;;;;7406794;19;20231;-93
2023/11/14 02:07:12;;;;;;;0.30;0.30;;;;;;;;;;7396891;19;20132;-94
2023/11/14 02:09:39;;;;;;;0.20;0.20;;;;;;;;;;7403703;19;20167;-92
2023/11/14 02:12:23;;;;;;;0.30;0.30;;;;;;;;;;7402781;19;20724;-94
2023/11/14 02:14:52;;;;;;;0.30;0.30;;;;;;;;;;7403438;19;20152;-94
2023/11/14 02:17:22;;;;;;;0.30;0.30;;;;;;;;;;7395393;19;20177;-92
2023/11/14 02:19:52;;;;;;;0.30;0.30;;;;;;;;;;7399872;19;20619;-92
2023/11/14 02:22:18;;;;;;;0.30;0.30;;;;;;;;;;7396645;19;20140;-92
2023/11/14 02:24:51;;;;;;;0.20;0.20;;;;;;;;;;7392970;19;20233;-93
2023/11/14 02:27:19;;;;;;;0.30;0.30;;;;;;;;;;7405886;19;20157;-95
2023/11/14 02:29:46;;;;;;;0.30;0.30;;;;;;;;;;7401606;19;20141;-93
2023/11/14 02:32:15;;;;;;;0.40;0.40;;;;;;;;;;7399292;19;20147;-93
2023/11/14 02:34:45;;;;;;;0.25;0.25;;;;;;;;;;7400936;19;20156;-94
2023/11/14 02:37:12;;;;;;;0.30;0.30;;;;;;;;;;7397010;19;20140;-93
2023/11/14 02:39:39;;;;;;;0.30;0.30;;;;;;;;;;7395504;19;20135;-93
2023/11/14 02:42:11;;;;;;;0.20;0.20;;;;;;;;;;7394902;19;20141;-94
2023/11/14 02:44:38;;;;;;;0.30;0.30;;;;;;;;;;7390679;19;20128;-92
2023/11/14 02:47:08;;;;;;;0.30;0.30;;;;;;;;;;7395326;19;20145;-90
2023/11/14 02:49:57;;;;;;;0.25;0.25;;;;;;;;;;7389351;19;20133;-93
2023/11/14 02:52:37;;;;;;;0.30;0.30;;;;;;;;;;7395114;19;20125;-93
2023/11/14 02:55:11;;;;;;;0.30;0.30;;;;;;;;;;7394395;19;20182;-92
2023/11/14 02:57:38;;;;;;;0.30;0.30;;;;;;;;;;7393235;19;20147;-93
2023/11/14 03:00:06;;;;;;;0.30;0.30;;;;;;;;;;7398689;19;20141;-91
2023/11/14 03:02:40;;;;;;;0.30;0.30;;;;;;;;;;7396481;19;20133;-90
2023/11/14 03:05:06;;;;;;;0.28;0.28;;;;;;;;;;7396432;19;20156;-92
2023/11/14 03:07:34;;;;;;;0.20;0.20;;;;;;;;;;7393879;19;20475;-93
2023/11/14 03:10:04;;;;;;;0.30;0.30;;;;;;;;;;7393662;19;20137;-91
2023/11/14 03:12:31;;;;;;;0.88;0.88;;;;;;;;;;7395047;19;20204;-93
2023/11/14 03:14:58;;;;;;;0.30;0.30;;;;;;;;;;7389568;19;20248;-92
2023/11/14 03:17:25;;;;;;;0.30;0.30;;;;;;;;;;7388419;19;20136;-93
2023/11/14 03:19:54;;;;;;;0.30;0.30;;;;;;;;;;7398468;19;20140;-91
2023/11/14 03:22:23;;;;;;;0.30;0.30;;;;;;;;;;7405148;19;20224;-93
2023/11/14 03:24:51;;;;;;;0.30;0.30;;;;;;;;;;7400435;19;20136;-94
2023/11/14 03:27:32;;;;;;;0.20;0.20;;;;;;;;;;7392109;19;20228;-92
2023/11/14 03:30:47;;;;;;;0.30;0.30;;;;;;;;;;7403689;19;20141;-96
2023/11/14 03:33:14;;;;;;;0.30;0.30;;;;;;;;;;7407071;19;20133;-93
2023/11/14 03:35:40;;;;;;;0.30;0.30;;;;;;;;;;7407593;19;20201;-91
2023/11/14 03:38:14;;;;;;;0.30;0.30;;;;;;;;;;7403954;19;20152;-94
2023/11/14 03:40:42;;;;;;;0.30;0.30;;;;;;;;;;7403002;19;20151;-92
2023/11/14 03:46:42;;;;;;;0.20;0.20;;;;;;;;;;7404331;19;20172;-90
2023/11/14 03:49:09;;;;;;;0.20;0.20;;;;;;;;;;7400210;19;20617;-94
2023/11/14 03:51:37;;;;;;;0.30;0.30;;;;;;;;;;7398664;19;20605;-92
2023/11/14 03:54:06;;;;;;;0.30;0.30;;;;;;;;;;7400847;19;20176;-92
2023/11/14 03:56:33;;;;;;;0.30;0.30;;;;;;;;;;7400269;19;20173;-94
2023/11/14 03:59:10;;;;;;;0.20;0.20;;;;;;;;;;7413733;19;20145;-93
2023/11/14 04:01:37;;;;;;;0.20;0.20;;;;;;;;;;7416176;19;20137;-92
2023/11/14 04:04:03;;;;;;;0.30;0.30;;;;;;;;;;7420288;19;20154;-95
2023/11/14 04:06:34;;;;;;;0.30;0.30;;;;;;;;;;7408900;19;20172;-94
2023/11/14 04:09:33;;;;;;;0.30;0.30;;;;;;;;;;7417485;19;20137;-94
2023/11/14 04:12:09;;;;;;;0.23;0.23;;;;;;;;;;7427652;19;20148;-93
2023/11/14 04:14:50;;;;;;;0.30;0.30;;;;;;;;;;7419491;19;20171;-92
2023/11/14 04:17:18;;;;;;;0.30;0.30;;;;;;;;;;7413970;19;20168;-94
2023/11/14 04:19:53;;;;;;;0.20;0.20;;;;;;;;;;7418892;19;20147;-94
2023/11/14 05:32:27;;;;;;;0.77;0.77;;;;;;;;;;7419910;19;20193;-94
2023/11/14 05:35:02;;;;;;;0.30;0.30;;;;;;;;;;7415304;19;20172;-95
2023/11/14 05:37:32;;;;;;;0.30;0.30;;;;;;;;;;7424054;19;20137;-96
2023/11/14 05:39:59;;;;;;;0.27;0.27;;;;;;;;;;7425172;19;20130;-96
2023/11/14 05:42:26;;;;;;;0.20;0.20;;;;;;;;;;7425568;19;20129;-96
2023/11/14 05:44:53;;;;;;;0.30;0.30;;;;;;;;;;7427128;19;20145;-96
2023/11/14 05:47:21;;;;;;;0.30;0.30;;;;;;;;;;7423401;19;20163;-95
2023/11/14 05:49:49;;;;;;;0.30;0.30;;;;;;;;;;7417078;19;20168;-95
2023/11/14 05:52:15;;;;;;;0.30;0.30;;;;;;;;;;7422069;19;20140;-93
2023/11/14 05:54:42;;;;;;;0.30;0.30;;;;;;;;;;7416706;19;20137;-94
2023/11/14 05:57:09;;;;;;;0.20;0.20;;;;;;;;;;7425045;19;20152;-96
2023/11/14 05:59:35;;;;;;;0.30;0.30;;;;;;;;;;7428735;19;20118;-95
2023/11/14 06:02:02;;;;;;;0.30;0.30;;;;;;;;;;7416473;19;20145;-94
2023/11/14 06:04:29;;;;;;;0.30;0.30;;;;;;;;;;7401409;19;20180;-95
2023/11/14 06:06:58;;;;;;;0.30;0.30;;;;;;;;;;7398745;19;20144;-94
2023/11/14 06:09:25;;;;;;;0.77;0.77;;;;;;;;;;7404758;19;20133;-95
2023/11/14 06:11:52;;;;;;;0.27;0.27;;;;;;;;;;7418119;19;20144;-95
2023/11/14 06:14:18;;;;;;;0.30;0.30;;;;;;;;;;7423787;19;20133;-96
2023/11/14 06:16:45;;;;;;;0.20;0.20;;;;;;;;;;7421243;19;20137;-96
2023/11/14 06:19:12;;;;;;;0.30;0.30;;;;;;;;;;7418320;19;20126;-96
2023/11/14 06:21:53;;;;;;;0.30;0.30;;;;;;;;;;7422306;19;20133;-93
2023/11/14 06:24:20;;;;;;;0.20;0.20;;;;;;;;;;7416714;19;20141;-93
2023/11/14 06:26:49;;;;;;;0.57;0.57;;;;;;;;;;7395187;19;20177;-87
2023/11/14 06:29:16;;;;;;;0.50;0.50;;;;;;;;;;7392683;19;20495;-87
2023/11/14 06:31:44;;;;;;;0.20;0.20;;;;;;;;;;7396337;19;20366;-89
2023/11/14 06:34:14;;;;;;;0.20;0.20;;;;;;;;;;7393345;19;20129;-89
2023/11/14 06:36:41;;;;;;;0.30;0.30;;;;;;;;;;7391574;19;20148;-89
2023/11/14 06:39:08;;;;;;;0.40;0.40;;;;;;;;;;7392037;19;20138;-89
2023/11/14 06:41:56;;;;;;;0.30;0.30;;;;;;;;;;7393246;19;20141;-92
2023/11/14 06:44:23;;;;;;;0.30;0.30;;;;;;;;;;7403506;19;20141;-94
2023/11/14 07:49:14;;;;;;;0.30;0.30;;;;;;;;;;7401914;19;20199;-90
2023/11/14 07:51:42;;;;;;;0.30;0.30;;;;;;;;;;7398375;19;20117;-89
2023/11/14 07:54:11;;;;;;;0.30;0.30;;;;;;;;;;7397037;19;20539;-92
2023/11/14 07:56:41;;;;;;;0.30;0.30;;;;;;;;;;7403135;19;20164;-92
2023/11/14 07:59:14;;;;;;;0.30;0.30;;;;;;;;;;7399695;19;20609;-93
2023/11/14 08:01:42;;;;;;;0.30;0.30;;;;;;;;;;7395355;19;20606;-93
2023/11/14 08:04:10;;;;;;;0.30;0.30;;;;;;;;;;7397970;19;20205;-90
2023/11/14 08:06:40;;;;;;;0.30;0.30;;;;;;;;;;7411377;19;20533;-93
2023/11/14 08:09:07;;;;;;;0.30;0.30;;;;;;;;;;7402632;19;20148;-94
2023/11/14 08:11:38;;;;;;;0.30;0.30;;;;;;;;;;7399170;19;20156;-93
2023/11/14 08:14:08;;;;;;;0.30;0.30;;;;;;;;;;7409882;19;20144;-92
2023/11/14 08:16:43;;;;;;;0.30;0.30;;;;;;;;;;7413751;19;20553;-94
2023/11/14 08:19:10;;;;;;;0.30;0.30;;;;;;;;;;7418719;19;20159;-93
2023/11/14 08:21:40;;;;;;;0.30;0.30;;;;;;;;;;7424302;19;20147;-93
2023/11/14 08:24:09;;;;;;;0.40;0.40;;;;;;;;;;7426625;19;20148;-93
2023/11/14 18:10:11;;;;;;;0.40;0.40;;;;;;;;;;7397554;19;20487;-91
2023/11/14 18:13:06;;;;;;;0.30;0.30;;;;;;;;;;7389118;19;20160;-93
2023/11/14 18:16:21;;;;;;;0.30;0.30;;;;;;;;;;7408250;19;20209;-95
2023/11/14 18:30:01;;;;;;;0.40;0.40;;;;;;;;;;7398321;19;20140;-92
2023/11/14 20:22:19;;;;;;;0.30;0.30;;;;;;;;;;7400092;19;20219;-91
2023/11/14 20:25:00;;;;;;;0.20;0.20;;;;;;;;;;7396905;19;20141;-92
2023/11/14 20:27:40;;;;;;;0.22;0.22;;;;;;;;;;7400054;19;20212;-93
2023/11/14 20:30:10;;;;;;;0.25;0.25;;;;;;;;;;7409980;19;20133;-93
2023/11/14 20:32:38;;;;;;;0.30;0.30;;;;;;;;;;7417097;19;20143;-94
2023/11/14 20:35:05;;;;;;;0.30;0.30;;;;;;;;;;7412086;19;20167;-91
2023/11/14 20:37:34;;;;;;;0.20;0.20;;;;;;;;;;7412725;19;20148;-93
2023/11/14 20:40:03;;;;;;;0.30;0.30;;;;;;;;;;7418642;19;20636;-93
2023/11/14 20:42:32;;;;;;;0.30;0.30;;;;;;;;;;7410094;19;20164;-92
2023/11/14 20:44:59;;;;;;;0.30;0.30;;;;;;;;;;7400279;19;20168;-91
2023/11/14 20:47:27;;;;;;;0.20;0.20;;;;;;;;;;7393544;19;20133;-91
2023/11/14 20:49:55;;;;;;;0.30;0.30;;;;;;;;;;7393056;19;20148;-91
2023/11/14 20:52:23;;;;;;;1.05;1.05;;;;;;;;;;7391203;19;20625;-90
2023/11/14 20:54:49;;;;;;;0.20;0.20;;;;;;;;;;7393034;19;20133;-90
2023/11/14 20:57:16;;;;;;;0.30;0.30;;;;;;;;;;7394613;19;20133;-89
2023/11/14 20:59:49;;;;;;;0.68;0.68;;;;;;;;;;7399622;19;20197;-92
2023/11/14 21:02:16;;;;;;;0.20;0.20;;;;;;;;;;7413929;19;20133;-92
2023/11/14 21:04:43;;;;;;;0.30;0.30;;;;;;;;;;7420144;19;20165;-93
2023/11/14 21:07:10;;;;;;;0.30;0.30;;;;;;;;;;7395776;19;20144;-93
2023/11/14 21:09:38;;;;;;;0.27;0.27;;;;;;;;;;7397842;19;20135;-93
2023/11/14 21:12:05;;;;;;;0.20;0.20;;;;;;;;;;7396129;19;20633;-92
2023/11/14 21:14:36;;;;;;;0.30;0.30;;;;;;;;;;7420394;19;20145;-95
2023/11/14 21:17:03;;;;;;;0.25;0.25;;;;;;;;;;7429047;19;20137;-94
2023/11/14 21:19:30;;;;;;;0.30;0.30;;;;;;;;;;7426633;19;20133;-92
2023/11/14 21:22:00;;;;;;;0.20;0.20;;;;;;;;;;7410502;19;20883;-92
2023/11/14 21:24:30;;;;;;;0.30;0.30;;;;;;;;;;7398670;19;20173;-92
2023/11/14 21:27:01;;;;;;;0.30;0.30;;;;;;;;;;7398194;19;20157;-93
2023/11/14 21:29:31;;;;;;;0.30;0.30;;;;;;;;;;7393612;19;20141;-93
2023/11/14 21:32:04;;;;;;;0.20;0.20;;;;;;;;;;7396965;19;20157;-95
2023/11/14 21:34:33;;;;;;;0.30;0.30;;;;;;;;;;7403507;19;20501;-94
2023/11/14 21:37:03;;;;;;;0.50;0.50;;;;;;;;;;7400803;19;20170;-93
2023/11/14 21:39:35;;;;;;;0.30;0.30;;;;;;;;;;7404883;19;20488;-92
2023/11/14 21:42:06;;;;;;;0.30;0.30;;;;;;;;;;7402894;19;20216;-94
2023/11/14 21:44:42;;;;;;;0.30;0.30;;;;;;;;;;7398404;19;20152;-92
2023/11/14 21:47:09;;;;;;;0.30;0.30;;;;;;;;;;7397700;19;20144;-92
2023/11/14 21:49:50;;;;;;;0.30;0.30;;;;;;;;;;7400444;19;20545;-93
2023/11/14 21:52:16;;;;;;;0.30;0.30;;;;;;;;;;7398280;19;20132;-94
2023/11/14 21:54:43;;;;;;;0.30;0.30;;;;;;;;;;7399239;19;20137;-94
2023/11/14 21:57:13;;;;;;;0.30;0.30;;;;;;;;;;7396867;19;20157;-92
2023/11/14 21:59:56;;;;;;;0.30;0.30;;;;;;;;;;7396692;19;20128;-93
2023/11/14 22:02:30;;;;;;;0.30;0.30;;;;;;;;;;7399509;19;20176;-92
2023/11/14 22:04:57;;;;;;;0.30;0.30;;;;;;;;;;7398774;19;20137;-92
2023/11/14 22:07:39;;;;;;;0.30;0.30;;;;;;;;;;7405966;19;20181;-92
2023/11/14 22:10:10;;;;;;;0.30;0.30;;;;;;;;;;7397058;19;20208;-92
2023/11/14 22:12:41;;;;;;;0.30;0.30;;;;;;;;;;7398754;19;20255;-92
2023/11/14 22:15:18;;;;;;;0.30;0.30;;;;;;;;;;7395467;19;20158;-90
2023/11/14 22:17:47;;;;;;;0.30;0.30;;;;;;;;;;7393705;19;20141;-93
2023/11/14 22:20:14;;;;;;;0.30;0.30;;;;;;;;;;7404359;19;20144;-90
2023/11/14 22:22:42;;;;;;;0.30;0.30;;;;;;;;;;7400815;19;20184;-93
2023/11/14 22:25:08;;;;;;;0.30;0.30;;;;;;;;;;7408181;19;20159;-93
2023/11/14 22:27:36;;;;;;;0.47;0.47;;;;;;;;;;7404263;19;20125;-93
2023/11/14 22:30:04;;;;;;;0.30;0.30;;;;;;;;;;7400984;19;20143;-94
2023/11/14 22:32:34;;;;;;;0.30;0.30;;;;;;;;;;7401290;19;20208;-93
2023/11/14 22:35:01;;;;;;;0.30;0.30;;;;;;;;;;7405686;19;20469;-95
2023/11/14 22:37:28;;;;;;;0.30;0.30;;;;;;;;;;7403948;19;20610;-92
2023/11/14 22:39:55;;;;;;;0.30;0.30;;;;;;;;;;7402363;19;20577;-93
2023/11/14 22:42:26;;;;;;;0.30;0.30;;;;;;;;;;7401314;19;20163;-92
2023/11/14 22:44:57;;;;;;;0.20;0.20;;;;;;;;;;7410313;19;20129;-94
2023/11/14 22:47:24;;;;;;;0.30;0.30;;;;;;;;;;7402818;19;20485;-94
2023/11/14 22:49:56;;;;;;;0.20;0.20;;;;;;;;;;7400666;19;20137;-93
2023/11/14 22:55:56;;;;;;;0.30;0.30;;;;;;;;;;7403189;19;20144;-91
2023/11/14 22:58:45;;;;;;;0.30;0.30;;;;;;;;;;7399668;19;20142;-93
2023/11/14 23:01:16;;;;;;;0.30;0.30;;;;;;;;;;7396897;19;20145;-94
2023/11/14 23:03:47;;;;;;;0.30;0.30;;;;;;;;;;7401469;19;20145;-94
2023/11/14 23:06:17;;;;;;;0.20;0.20;;;;;;;;;;7406610;19;20145;-95
2023/11/14 23:08:44;;;;;;;0.30;0.30;;;;;;;;;;7413889;19;20140;-94
2023/11/14 23:11:20;;;;;;;0.20;0.20;;;;;;;;;;7412520;19;20133;-91
2023/11/14 23:13:47;;;;;;;0.30;0.30;;;;;;;;;;7411290;19;20133;-96
2023/11/14 23:16:14;;;;;;;0.30;0.30;;;;;;;;;;7409086;19;20225;-93
2023/11/14 23:18:41;;;;;;;0.30;0.30;;;;;;;;;;7404594;19;20216;-96
2023/11/14 23:21:11;;;;;;;0.30;0.30;;;;;;;;;;7411916;19;20145;-94
2023/11/14 23:23:38;;;;;;;0.20;0.20;;;;;;;;;;7413070;19;20156;-92
2023/11/14 23:26:05;;;;;;;0.30;0.30;;;;;;;;;;7413102;19;20174;-95
2023/11/14 23:28:31;;;;;;;0.30;0.30;;;;;;;;;;7403737;19;20145;-96
2023/11/14 23:30:58;;;;;;;0.30;0.30;;;;;;;;;;7407103;19;20141;-94
2023/11/14 23:33:25;;;;;;;0.30;0.30;;;;;;;;;;7407625;19;20160;-93
2023/11/14 23:35:52;;;;;;;0.30;0.30;;;;;;;;;;7412500;19;20188;-95
2023/11/14 23:38:20;;;;;;;0.30;0.30;;;;;;;;;;7409973;19;20141;-95
2023/11/14 23:40:47;;;;;;;0.30;0.30;;;;;;;;;;7402709;19;20629;-94
2023/11/14 23:43:13;;;;;;;0.30;0.30;;;;;;;;;;7400445;19;20144;-93
2023/11/14 23:45:40;;;;;;;0.30;0.30;;;;;;;;;;7407407;19;20170;-91
2023/11/14 23:48:08;;;;;;;0.30;0.30;;;;;;;;;;7418821;19;20145;-94
2023/11/14 23:50:35;;;;;;;0.30;0.30;;;;;;;;;;7403559;19;20141;-92
2023/11/14 23:53:02;;;;;;;0.30;0.30;;;;;;;;;;7399889;19;20129;-94
2023/11/14 23:55:29;;;;;;;0.30;0.30;;;;;;;;;;7407596;19;20684;-94
2023/11/14 23:57:56;;;;;;;0.30;0.30;;;;;;;;;;7406771;19;20145;-94
